sensor_id;sensor_type;location;lat;lon;timestamp;temperature;humidity
37158;DHT22;23050;51.776;22.638;2023-07-24T00:01:09;21.00;1.00
37158;DHT22;23050;51.776;22.638;2023-07-24T00:03:35;21.00;1.00
37158;DHT22;23050;51.776;22.638;2023-07-24T00:06:01;21.00;1.00
37158;DHT22;23050;51.776;22.638;2023-07-24T00:08:26;21.00;1.00
37158;DHT22;23050;51.776;22.638;2023-07-24T00:10:52;21.00;1.00
37158;DHT22;23050;51.776;22.638;2023-07-24T00:13:17;20.90;1.00
37158;DHT22;23050;51.776;22.638;2023-07-24T00:15:43;20.90;1.00
37158;DHT22;23050;51.776;22.638;2023-07-24T00:18:08;20.80;1.00
37158;DHT22;23050;51.776;22.638;2023-07-24T00:20:34;20.80;1.00
37158;DHT22;23050;51.776;22.638;2023-07-24T00:22:59;20.80;1.00
37158;DHT22;23050;51.776;22.638;2023-07-24T00:25:24;20.70;1.00
37158;DHT22;23050;51.776;22.638;2023-07-24T00:27:50;20.70;1.00
37158;DHT22;23050;51.776;22.638;2023-07-24T00:30:15;20.70;1.00
37158;DHT22;23050;51.776;22.638;2023-07-24T00:32:44;20.70;1.00
37158;DHT22;23050;51.776;22.638;2023-07-24T00:35:09;20.70;1.00
37158;DHT22;23050;51.776;22.638;2023-07-24T00:37:35;20.70;1.00
37158;DHT22;23050;51.776;22.638;2023-07-24T00:40:01;20.60;1.00
37158;DHT22;23050;51.776;22.638;2023-07-24T00:42:26;20.60;1.00
37158;DHT22;23050;51.776;22.638;2023-07-24T00:44:51;20.60;1.00
37158;DHT22;23050;51.776;22.638;2023-07-24T00:47:17;20.60;1.00
37158;DHT22;23050;51.776;22.638;2023-07-24T00:49:43;20.60;1.00
37158;DHT22;23050;51.776;22.638;2023-07-24T00:52:08;20.60;1.00
37158;DHT22;23050;51.776;22.638;2023-07-24T00:54:34;20.60;1.00
37158;DHT22;23050;51.776;22.638;2023-07-24T00:57:00;20.60;1.00
37158;DHT22;23050;51.776;22.638;2023-07-24T00:59:26;20.60;1.00
37158;DHT22;23050;51.776;22.638;2023-07-24T01:01:52;20.60;1.00
37158;DHT22;23050;51.776;22.638;2023-07-24T01:04:17;20.50;1.00
37158;DHT22;23050;51.776;22.638;2023-07-24T01:06:43;20.50;1.00
37158;DHT22;23050;51.776;22.638;2023-07-24T01:09:09;20.50;1.00
37158;DHT22;23050;51.776;22.638;2023-07-24T01:11:40;20.50;1.00
37158;DHT22;23050;51.776;22.638;2023-07-24T01:14:17;20.50;1.00
37158;DHT22;23050;51.776;22.638;2023-07-24T01:16:45;20.50;1.00
37158;DHT22;23050;51.776;22.638;2023-07-24T01:19:12;20.40;1.00
37158;DHT22;23050;51.776;22.638;2023-07-24T01:21:44;20.40;1.00
37158;DHT22;23050;51.776;22.638;2023-07-24T01:24:17;20.40;1.00
37158;DHT22;23050;51.776;22.638;2023-07-24T01:26:46;20.50;1.00
37158;DHT22;23050;51.776;22.638;2023-07-24T01:29:11;20.40;1.00
37158;DHT22;23050;51.776;22.638;2023-07-24T01:31:36;20.50;1.00
37158;DHT22;23050;51.776;22.638;2023-07-24T01:34:02;20.50;1.00
37158;DHT22;23050;51.776;22.638;2023-07-24T01:36:27;20.50;1.00
37158;DHT22;23050;51.776;22.638;2023-07-24T01:38:53;20.50;1.00
37158;DHT22;23050;51.776;22.638;2023-07-24T01:41:19;20.50;1.00
37158;DHT22;23050;51.776;22.638;2023-07-24T01:43:44;20.50;1.00
37158;DHT22;23050;51.776;22.638;2023-07-24T01:46:10;20.40;1.00
37158;DHT22;23050;51.776;22.638;2023-07-24T01:48:35;20.40;1.00
37158;DHT22;23050;51.776;22.638;2023-07-24T01:51:01;20.40;1.00
37158;DHT22;23050;51.776;22.638;2023-07-24T01:53:26;20.30;1.00
37158;DHT22;23050;51.776;22.638;2023-07-24T01:55:52;20.30;1.00
37158;DHT22;23050;51.776;22.638;2023-07-24T01:58:17;20.30;1.00
37158;DHT22;23050;51.776;22.638;2023-07-24T02:00:43;20.30;1.10
37158;DHT22;23050;51.776;22.638;2023-07-24T02:03:08;20.20;1.10
37158;DHT22;23050;51.776;22.638;2023-07-24T02:05:34;20.20;1.70
37158;DHT22;23050;51.776;22.638;2023-07-24T02:08:00;20.20;1.60
37158;DHT22;23050;51.776;22.638;2023-07-24T02:10:26;20.20;1.70
37158;DHT22;23050;51.776;22.638;2023-07-24T02:12:51;20.20;1.90
37158;DHT22;23050;51.776;22.638;2023-07-24T02:15:17;20.20;2.20
37158;DHT22;23050;51.776;22.638;2023-07-24T02:17:42;20.10;2.00
37158;DHT22;23050;51.776;22.638;2023-07-24T02:20:08;20.10;2.20
37158;DHT22;23050;51.776;22.638;2023-07-24T02:22:33;20.10;1.30
37158;DHT22;23050;51.776;22.638;2023-07-24T02:25:02;20.20;1.20
37158;DHT22;23050;51.776;22.638;2023-07-24T02:27:28;20.20;1.00
37158;DHT22;23050;51.776;22.638;2023-07-24T02:29:54;20.20;1.00
37158;DHT22;23050;51.776;22.638;2023-07-24T02:32:22;20.30;1.00
37158;DHT22;23050;51.776;22.638;2023-07-24T02:34:50;20.30;1.00
37158;DHT22;23050;51.776;22.638;2023-07-24T02:37:16;20.30;1.00
37158;DHT22;23050;51.776;22.638;2023-07-24T02:39:42;20.30;1.00
37158;DHT22;23050;51.776;22.638;2023-07-24T02:42:07;20.30;1.00
37158;DHT22;23050;51.776;22.638;2023-07-24T02:44:36;20.40;1.00
37158;DHT22;23050;51.776;22.638;2023-07-24T02:47:01;20.40;1.00
37158;DHT22;23050;51.776;22.638;2023-07-24T02:49:28;20.30;1.00
37158;DHT22;23050;51.776;22.638;2023-07-24T02:51:54;20.30;1.00
37158;DHT22;23050;51.776;22.638;2023-07-24T02:54:19;20.30;1.00
37158;DHT22;23050;51.776;22.638;2023-07-24T02:56:44;20.20;1.00
37158;DHT22;23050;51.776;22.638;2023-07-24T02:59:10;20.20;1.00
37158;DHT22;23050;51.776;22.638;2023-07-24T03:01:36;20.20;1.00
37158;DHT22;23050;51.776;22.638;2023-07-24T03:04:02;20.20;1.00
37158;DHT22;23050;51.776;22.638;2023-07-24T03:06:27;20.20;1.00
37158;DHT22;23050;51.776;22.638;2023-07-24T03:08:53;20.10;1.00
37158;DHT22;23050;51.776;22.638;2023-07-24T03:11:18;20.10;1.00
37158;DHT22;23050;51.776;22.638;2023-07-24T03:13:44;20.10;1.00
37158;DHT22;23050;51.776;22.638;2023-07-24T03:16:09;20.10;1.00
37158;DHT22;23050;51.776;22.638;2023-07-24T03:18:35;20.10;1.00
37158;DHT22;23050;51.776;22.638;2023-07-24T03:21:00;20.10;1.00
37158;DHT22;23050;51.776;22.638;2023-07-24T03:23:26;20.10;1.00
37158;DHT22;23050;51.776;22.638;2023-07-24T03:25:51;20.10;1.00
37158;DHT22;23050;51.776;22.638;2023-07-24T03:28:17;20.10;1.00
37158;DHT22;23050;51.776;22.638;2023-07-24T03:30:42;20.10;1.00
37158;DHT22;23050;51.776;22.638;2023-07-24T03:33:08;20.20;1.00
37158;DHT22;23050;51.776;22.638;2023-07-24T03:35:33;20.20;1.00
37158;DHT22;23050;51.776;22.638;2023-07-24T03:37:59;20.20;1.00
37158;DHT22;23050;51.776;22.638;2023-07-24T03:40:25;20.20;1.00
37158;DHT22;23050;51.776;22.638;2023-07-24T03:42:50;20.20;1.00
37158;DHT22;23050;51.776;22.638;2023-07-24T03:45:16;20.20;1.00
37158;DHT22;23050;51.776;22.638;2023-07-24T03:47:41;20.20;1.00
37158;DHT22;23050;51.776;22.638;2023-07-24T03:50:07;20.30;1.00
37158;DHT22;23050;51.776;22.638;2023-07-24T03:52:32;20.30;1.00
37158;DHT22;23050;51.776;22.638;2023-07-24T03:54:58;20.30;1.00
37158;DHT22;23050;51.776;22.638;2023-07-24T03:57:23;20.30;1.00
37158;DHT22;23050;51.776;22.638;2023-07-24T03:59:49;20.30;1.00
37158;DHT22;23050;51.776;22.638;2023-07-24T04:02:14;20.30;1.00
37158;DHT22;23050;51.776;22.638;2023-07-24T04:04:40;20.30;1.00
37158;DHT22;23050;51.776;22.638;2023-07-24T04:07:05;20.40;1.00
37158;DHT22;23050;51.776;22.638;2023-07-24T04:09:31;20.40;1.00
37158;DHT22;23050;51.776;22.638;2023-07-24T04:11:56;20.40;1.00
37158;DHT22;23050;51.776;22.638;2023-07-24T04:14:21;20.40;1.00
37158;DHT22;23050;51.776;22.638;2023-07-24T04:19:47;20.50;1.00
37158;DHT22;23050;51.776;22.638;2023-07-24T04:22:12;20.60;1.00
37158;DHT22;23050;51.776;22.638;2023-07-24T04:24:37;20.60;1.00
37158;DHT22;23050;51.776;22.638;2023-07-24T04:27:03;20.60;1.00
37158;DHT22;23050;51.776;22.638;2023-07-24T04:29:28;20.70;1.00
37158;DHT22;23050;51.776;22.638;2023-07-24T04:31:54;20.80;1.00
37158;DHT22;23050;51.776;22.638;2023-07-24T04:34:19;20.80;1.00
37158;DHT22;23050;51.776;22.638;2023-07-24T04:36:45;20.90;1.00
37158;DHT22;23050;51.776;22.638;2023-07-24T04:39:10;21.00;1.00
37158;DHT22;23050;51.776;22.638;2023-07-24T04:41:36;21.00;1.00
37158;DHT22;23050;51.776;22.638;2023-07-24T04:44:01;21.10;1.00
37158;DHT22;23050;51.776;22.638;2023-07-24T04:46:27;21.10;1.00
37158;DHT22;23050;51.776;22.638;2023-07-24T04:48:52;21.20;1.00
37158;DHT22;23050;51.776;22.638;2023-07-24T04:51:17;21.20;1.00
37158;DHT22;23050;51.776;22.638;2023-07-24T04:53:44;21.40;1.00
37158;DHT22;23050;51.776;22.638;2023-07-24T04:56:09;21.50;1.00
37158;DHT22;23050;51.776;22.638;2023-07-24T04:58:35;21.60;1.00
37158;DHT22;23050;51.776;22.638;2023-07-24T05:01:04;21.70;1.00
37158;DHT22;23050;51.776;22.638;2023-07-24T05:03:30;21.80;1.00
37158;DHT22;23050;51.776;22.638;2023-07-24T05:05:56;21.80;1.00
37158;DHT22;23050;51.776;22.638;2023-07-24T05:08:22;21.80;1.00
37158;DHT22;23050;51.776;22.638;2023-07-24T05:10:53;21.80;1.00
37158;DHT22;23050;51.776;22.638;2023-07-24T05:13:18;21.80;1.00
37158;DHT22;23050;51.776;22.638;2023-07-24T05:15:44;21.90;1.00
37158;DHT22;23050;51.776;22.638;2023-07-24T05:18:09;22.00;1.00
37158;DHT22;23050;51.776;22.638;2023-07-24T05:20:34;22.20;1.00
37158;DHT22;23050;51.776;22.638;2023-07-24T05:23:00;22.30;1.00
37158;DHT22;23050;51.776;22.638;2023-07-24T05:25:25;22.30;1.00
37158;DHT22;23050;51.776;22.638;2023-07-24T05:27:51;22.30;1.00
37158;DHT22;23050;51.776;22.638;2023-07-24T05:30:16;22.30;1.00
37158;DHT22;23050;51.776;22.638;2023-07-24T05:32:42;22.40;1.00
37158;DHT22;23050;51.776;22.638;2023-07-24T05:35:07;22.60;1.00
37158;DHT22;23050;51.776;22.638;2023-07-24T05:37:33;22.60;1.00
37158;DHT22;23050;51.776;22.638;2023-07-24T05:39:58;23.00;1.00
37158;DHT22;23050;51.776;22.638;2023-07-24T05:42:24;23.70;1.00
37158;DHT22;23050;51.776;22.638;2023-07-24T05:44:49;24.20;1.00
37158;DHT22;23050;51.776;22.638;2023-07-24T05:47:14;24.70;1.00
37158;DHT22;23050;51.776;22.638;2023-07-24T05:49:40;25.00;1.00
37158;DHT22;23050;51.776;22.638;2023-07-24T05:52:06;24.80;1.00
37158;DHT22;23050;51.776;22.638;2023-07-24T05:54:31;24.80;1.00
37158;DHT22;23050;51.776;22.638;2023-07-24T05:56:57;24.90;1.00
37158;DHT22;23050;51.776;22.638;2023-07-24T05:59:22;25.10;1.00
37158;DHT22;23050;51.776;22.638;2023-07-24T06:01:48;25.30;1.00
37158;DHT22;23050;51.776;22.638;2023-07-24T06:04:13;25.80;1.00
37158;DHT22;23050;51.776;22.638;2023-07-24T06:06:38;26.30;1.00
37158;DHT22;23050;51.776;22.638;2023-07-24T06:09:05;26.70;1.00
37158;DHT22;23050;51.776;22.638;2023-07-24T06:11:31;27.20;1.00
37158;DHT22;23050;51.776;22.638;2023-07-24T06:13:56;27.20;1.00
37158;DHT22;23050;51.776;22.638;2023-07-24T06:16:22;26.90;1.00
37158;DHT22;23050;51.776;22.638;2023-07-24T06:18:47;26.50;1.00
37158;DHT22;23050;51.776;22.638;2023-07-24T06:21:13;26.60;1.00
37158;DHT22;23050;51.776;22.638;2023-07-24T06:23:38;26.80;1.00
37158;DHT22;23050;51.776;22.638;2023-07-24T06:26:04;27.10;1.00
37158;DHT22;23050;51.776;22.638;2023-07-24T06:28:30;27.20;1.00
37158;DHT22;23050;51.776;22.638;2023-07-24T06:30:57;27.20;1.00
37158;DHT22;23050;51.776;22.638;2023-07-24T06:33:22;27.20;1.00
37158;DHT22;23050;51.776;22.638;2023-07-24T06:35:48;27.70;1.00
37158;DHT22;23050;51.776;22.638;2023-07-24T06:38:14;28.00;1.00
37158;DHT22;23050;51.776;22.638;2023-07-24T06:43:38;28.90;1.00
37158;DHT22;23050;51.776;22.638;2023-07-24T06:46:04;28.50;1.00
37158;DHT22;23050;51.776;22.638;2023-07-24T06:48:29;28.70;1.00
37158;DHT22;23050;51.776;22.638;2023-07-24T06:50:54;28.80;1.00
37158;DHT22;23050;51.776;22.638;2023-07-24T06:56:03;29.50;1.00
37158;DHT22;23050;51.776;22.638;2023-07-24T06:58:29;30.00;1.00
37158;DHT22;23050;51.776;22.638;2023-07-24T07:00:57;31.00;1.00
37158;DHT22;23050;51.776;22.638;2023-07-24T07:03:22;30.60;1.00
37158;DHT22;23050;51.776;22.638;2023-07-24T07:05:48;29.50;1.00
37158;DHT22;23050;51.776;22.638;2023-07-24T07:08:16;28.50;1.00
37158;DHT22;23050;51.776;22.638;2023-07-24T07:10:41;28.20;1.00
37158;DHT22;23050;51.776;22.638;2023-07-24T07:13:07;27.50;1.00
37158;DHT22;23050;51.776;22.638;2023-07-24T07:15:33;27.20;1.00
37158;DHT22;23050;51.776;22.638;2023-07-24T07:17:58;26.70;1.00
37158;DHT22;23050;51.776;22.638;2023-07-24T07:20:40;26.50;1.00
37158;DHT22;23050;51.776;22.638;2023-07-24T07:23:12;26.30;1.00
37158;DHT22;23050;51.776;22.638;2023-07-24T07:25:37;25.90;1.00
37158;DHT22;23050;51.776;22.638;2023-07-24T07:28:03;25.90;1.00
37158;DHT22;23050;51.776;22.638;2023-07-24T07:30:33;26.10;1.00
37158;DHT22;23050;51.776;22.638;2023-07-24T07:33:08;26.20;1.00
37158;DHT22;23050;51.776;22.638;2023-07-24T07:35:34;26.40;1.00
37158;DHT22;23050;51.776;22.638;2023-07-24T07:38:06;26.30;1.00
37158;DHT22;23050;51.776;22.638;2023-07-24T07:40:31;26.20;1.00
37158;DHT22;23050;51.776;22.638;2023-07-24T07:42:57;26.30;1.00
37158;DHT22;23050;51.776;22.638;2023-07-24T07:45:30;26.30;1.00
37158;DHT22;23050;51.776;22.638;2023-07-24T07:47:58;26.30;1.00
37158;DHT22;23050;51.776;22.638;2023-07-24T07:53:00;26.30;1.00
37158;DHT22;23050;51.776;22.638;2023-07-24T07:55:26;26.60;1.00
37158;DHT22;23050;51.776;22.638;2023-07-24T07:58:00;27.40;1.00
37158;DHT22;23050;51.776;22.638;2023-07-24T08:00:31;28.30;1.00
37158;DHT22;23050;51.776;22.638;2023-07-24T08:02:59;28.60;1.00
37158;DHT22;23050;51.776;22.638;2023-07-24T08:05:24;27.90;1.00
37158;DHT22;23050;51.776;22.638;2023-07-24T08:07:50;27.50;1.00
37158;DHT22;23050;51.776;22.638;2023-07-24T08:10:20;27.20;1.00
37158;DHT22;23050;51.776;22.638;2023-07-24T08:12:51;27.20;1.00
37158;DHT22;23050;51.776;22.638;2023-07-24T08:15:18;27.70;1.00
37158;DHT22;23050;51.776;22.638;2023-07-24T08:17:44;28.40;1.00
37158;DHT22;23050;51.776;22.638;2023-07-24T08:20:15;29.10;1.00
37158;DHT22;23050;51.776;22.638;2023-07-24T08:22:43;29.70;1.00
37158;DHT22;23050;51.776;22.638;2023-07-24T08:25:09;30.40;1.00
37158;DHT22;23050;51.776;22.638;2023-07-24T08:27:37;31.00;1.00
37158;DHT22;23050;51.776;22.638;2023-07-24T08:30:04;30.80;1.00
37158;DHT22;23050;51.776;22.638;2023-07-24T08:32:30;30.40;1.00
37158;DHT22;23050;51.776;22.638;2023-07-24T08:34:58;29.60;1.00
37158;DHT22;23050;51.776;22.638;2023-07-24T08:37:25;29.10;1.00
37158;DHT22;23050;51.776;22.638;2023-07-24T08:39:55;28.50;1.00
37158;DHT22;23050;51.776;22.638;2023-07-24T08:42:23;28.70;1.00
37158;DHT22;23050;51.776;22.638;2023-07-24T08:44:49;28.60;1.00
37158;DHT22;23050;51.776;22.638;2023-07-24T08:47:15;28.10;1.00
37158;DHT22;23050;51.776;22.638;2023-07-24T08:49:41;28.00;1.00
37158;DHT22;23050;51.776;22.638;2023-07-24T08:52:07;27.40;1.00
37158;DHT22;23050;51.776;22.638;2023-07-24T08:54:35;27.10;1.00
37158;DHT22;23050;51.776;22.638;2023-07-24T08:57:02;27.10;1.00
37158;DHT22;23050;51.776;22.638;2023-07-24T08:59:29;27.20;1.00
37158;DHT22;23050;51.776;22.638;2023-07-24T09:01:55;27.10;1.00
37158;DHT22;23050;51.776;22.638;2023-07-24T09:04:20;26.90;1.00
37158;DHT22;23050;51.776;22.638;2023-07-24T09:06:46;26.90;1.00
37158;DHT22;23050;51.776;22.638;2023-07-24T09:09:14;27.00;1.00
37158;DHT22;23050;51.776;22.638;2023-07-24T09:11:51;26.90;1.00
37158;DHT22;23050;51.776;22.638;2023-07-24T09:14:24;26.90;1.00
37158;DHT22;23050;51.776;22.638;2023-07-24T09:16:49;27.00;1.00
37158;DHT22;23050;51.776;22.638;2023-07-24T09:19:19;27.00;1.00
37158;DHT22;23050;51.776;22.638;2023-07-24T09:21:44;26.90;1.00
37158;DHT22;23050;51.776;22.638;2023-07-24T09:24:13;26.90;1.00
37158;DHT22;23050;51.776;22.638;2023-07-24T09:26:49;27.10;1.00
37158;DHT22;23050;51.776;22.638;2023-07-24T09:29:14;27.60;1.00
37158;DHT22;23050;51.776;22.638;2023-07-24T09:31:40;27.70;1.00
37158;DHT22;23050;51.776;22.638;2023-07-24T09:34:13;27.90;1.00
37158;DHT22;23050;51.776;22.638;2023-07-24T09:36:39;28.30;1.00
37158;DHT22;23050;51.776;22.638;2023-07-24T09:39:04;28.50;1.00
37158;DHT22;23050;51.776;22.638;2023-07-24T09:41:31;28.60;1.00
37158;DHT22;23050;51.776;22.638;2023-07-24T09:44:00;29.30;1.00
37158;DHT22;23050;51.776;22.638;2023-07-24T09:46:26;29.70;1.00
37158;DHT22;23050;51.776;22.638;2023-07-24T09:48:53;29.70;1.00
37158;DHT22;23050;51.776;22.638;2023-07-24T09:51:20;30.00;1.00
37158;DHT22;23050;51.776;22.638;2023-07-24T09:53:55;30.60;1.00
37158;DHT22;23050;51.776;22.638;2023-07-24T09:56:23;30.90;1.00
37158;DHT22;23050;51.776;22.638;2023-07-24T09:58:49;31.50;1.00
37158;DHT22;23050;51.776;22.638;2023-07-24T10:01:19;32.30;1.00
37158;DHT22;23050;51.776;22.638;2023-07-24T10:03:46;31.70;1.00
37158;DHT22;23050;51.776;22.638;2023-07-24T10:06:12;31.00;1.00
37158;DHT22;23050;51.776;22.638;2023-07-24T10:08:40;30.60;1.00
37158;DHT22;23050;51.776;22.638;2023-07-24T10:11:06;30.40;1.00
37158;DHT22;23050;51.776;22.638;2023-07-24T10:13:31;29.70;1.00
37158;DHT22;23050;51.776;22.638;2023-07-24T10:16:02;29.30;1.00
37158;DHT22;23050;51.776;22.638;2023-07-24T10:18:30;29.60;1.00
37158;DHT22;23050;51.776;22.638;2023-07-24T10:21:03;30.10;1.00
37158;DHT22;23050;51.776;22.638;2023-07-24T10:23:28;30.10;1.00
37158;DHT22;23050;51.776;22.638;2023-07-24T10:26:03;29.80;1.00
37158;DHT22;23050;51.776;22.638;2023-07-24T10:28:32;30.20;1.00
37158;DHT22;23050;51.776;22.638;2023-07-24T10:30:58;30.90;1.00
37158;DHT22;23050;51.776;22.638;2023-07-24T10:33:23;31.10;1.00
37158;DHT22;23050;51.776;22.638;2023-07-24T10:35:49;31.60;1.00
37158;DHT22;23050;51.776;22.638;2023-07-24T10:38:16;31.80;1.00
37158;DHT22;23050;51.776;22.638;2023-07-24T10:40:43;31.60;1.00
37158;DHT22;23050;51.776;22.638;2023-07-24T10:43:18;31.70;1.00
37158;DHT22;23050;51.776;22.638;2023-07-24T10:45:48;31.90;1.00
37158;DHT22;23050;51.776;22.638;2023-07-24T10:48:17;31.70;1.00
37158;DHT22;23050;51.776;22.638;2023-07-24T10:50:44;31.60;1.00
37158;DHT22;23050;51.776;22.638;2023-07-24T10:53:10;31.60;1.00
37158;DHT22;23050;51.776;22.638;2023-07-24T10:55:36;31.80;1.00
37158;DHT22;23050;51.776;22.638;2023-07-24T10:58:01;32.70;1.00
37158;DHT22;23050;51.776;22.638;2023-07-24T11:00:29;32.40;1.00
37158;DHT22;23050;51.776;22.638;2023-07-24T11:03:01;31.80;1.00
37158;DHT22;23050;51.776;22.638;2023-07-24T11:05:26;31.30;1.00
37158;DHT22;23050;51.776;22.638;2023-07-24T11:07:54;31.10;1.00
37158;DHT22;23050;51.776;22.638;2023-07-24T11:10:27;31.30;1.00
37158;DHT22;23050;51.776;22.638;2023-07-24T11:12:55;31.20;1.00
37158;DHT22;23050;51.776;22.638;2023-07-24T11:15:23;31.40;1.00
37158;DHT22;23050;51.776;22.638;2023-07-24T11:17:52;31.00;1.00
37158;DHT22;23050;51.776;22.638;2023-07-24T11:20:19;30.70;1.00
37158;DHT22;23050;51.776;22.638;2023-07-24T11:22:45;30.70;1.00
37158;DHT22;23050;51.776;22.638;2023-07-24T11:25:13;30.80;1.00
37158;DHT22;23050;51.776;22.638;2023-07-24T11:27:44;30.90;1.00
37158;DHT22;23050;51.776;22.638;2023-07-24T11:30:18;31.20;1.00
37158;DHT22;23050;51.776;22.638;2023-07-24T11:32:48;31.20;1.00
37158;DHT22;23050;51.776;22.638;2023-07-24T11:35:13;31.20;1.00
37158;DHT22;23050;51.776;22.638;2023-07-24T11:40:34;31.80;1.00
37158;DHT22;23050;51.776;22.638;2023-07-24T11:43:03;32.20;1.00
37158;DHT22;23050;51.776;22.638;2023-07-24T11:45:41;32.10;1.00
37158;DHT22;23050;51.776;22.638;2023-07-24T11:48:11;32.10;1.00
37158;DHT22;23050;51.776;22.638;2023-07-24T11:50:43;32.10;1.00
37158;DHT22;23050;51.776;22.638;2023-07-24T11:53:18;31.90;1.00
37158;DHT22;23050;51.776;22.638;2023-07-24T11:55:43;32.00;1.00
37158;DHT22;23050;51.776;22.638;2023-07-24T11:58:13;31.90;1.00
37158;DHT22;23050;51.776;22.638;2023-07-24T12:00:39;32.20;1.00
37158;DHT22;23050;51.776;22.638;2023-07-24T12:03:05;32.00;1.00
37158;DHT22;23050;51.776;22.638;2023-07-24T12:05:37;31.50;1.00
37158;DHT22;23050;51.776;22.638;2023-07-24T12:08:02;30.80;1.00
37158;DHT22;23050;51.776;22.638;2023-07-24T12:13:43;30.50;1.00
37158;DHT22;23050;51.776;22.638;2023-07-24T12:16:18;31.40;1.00
37158;DHT22;23050;51.776;22.638;2023-07-24T12:18:44;32.10;1.00
37158;DHT22;23050;51.776;22.638;2023-07-24T12:21:09;31.70;1.00
37158;DHT22;23050;51.776;22.638;2023-07-24T12:23:35;31.00;1.00
37158;DHT22;23050;51.776;22.638;2023-07-24T12:26:00;31.10;1.00
37158;DHT22;23050;51.776;22.638;2023-07-24T12:28:26;31.00;1.00
37158;DHT22;23050;51.776;22.638;2023-07-24T12:30:51;30.60;1.00
37158;DHT22;23050;51.776;22.638;2023-07-24T12:33:17;30.30;1.00
37158;DHT22;23050;51.776;22.638;2023-07-24T12:35:43;30.60;1.00
37158;DHT22;23050;51.776;22.638;2023-07-24T12:38:08;31.20;1.00
37158;DHT22;23050;51.776;22.638;2023-07-24T12:40:39;31.30;1.00
37158;DHT22;23050;51.776;22.638;2023-07-24T12:43:14;30.60;1.00
37158;DHT22;23050;51.776;22.638;2023-07-24T12:45:40;30.00;1.00
37158;DHT22;23050;51.776;22.638;2023-07-24T12:48:05;30.00;1.00
37158;DHT22;23050;51.776;22.638;2023-07-24T12:50:31;30.20;1.00
37158;DHT22;23050;51.776;22.638;2023-07-24T12:52:56;30.70;1.00
37158;DHT22;23050;51.776;22.638;2023-07-24T12:55:22;30.40;1.00
37158;DHT22;23050;51.776;22.638;2023-07-24T12:57:47;30.40;1.00
37158;DHT22;23050;51.776;22.638;2023-07-24T13:00:13;30.60;1.00
37158;DHT22;23050;51.776;22.638;2023-07-24T13:02:38;30.30;1.00
37158;DHT22;23050;51.776;22.638;2023-07-24T13:05:05;30.30;1.00
37158;DHT22;23050;51.776;22.638;2023-07-24T13:07:31;30.40;1.00
37158;DHT22;23050;51.776;22.638;2023-07-24T13:09:57;30.30;1.00
37158;DHT22;23050;51.776;22.638;2023-07-24T13:12:22;30.20;1.00
37158;DHT22;23050;51.776;22.638;2023-07-24T13:14:49;30.20;1.00
37158;DHT22;23050;51.776;22.638;2023-07-24T13:17:14;29.90;1.00
37158;DHT22;23050;51.776;22.638;2023-07-24T13:19:40;29.80;1.00
37158;DHT22;23050;51.776;22.638;2023-07-24T13:22:05;29.70;1.00
37158;DHT22;23050;51.776;22.638;2023-07-24T13:24:31;30.40;1.00
37158;DHT22;23050;51.776;22.638;2023-07-24T13:26:57;31.00;1.00
37158;DHT22;23050;51.776;22.638;2023-07-24T13:29:22;31.50;1.00
37158;DHT22;23050;51.776;22.638;2023-07-24T13:31:49;32.10;1.00
37158;DHT22;23050;51.776;22.638;2023-07-24T13:34:15;32.70;1.00
37158;DHT22;23050;51.776;22.638;2023-07-24T13:36:43;33.40;1.00
37158;DHT22;23050;51.776;22.638;2023-07-24T13:39:08;34.40;1.00
37158;DHT22;23050;51.776;22.638;2023-07-24T13:41:34;35.00;1.00
37158;DHT22;23050;51.776;22.638;2023-07-24T13:44:01;35.40;1.00
37158;DHT22;23050;51.776;22.638;2023-07-24T13:46:26;34.80;1.00
37158;DHT22;23050;51.776;22.638;2023-07-24T13:48:52;33.60;1.00
37158;DHT22;23050;51.776;22.638;2023-07-24T13:51:17;32.50;1.00
37158;DHT22;23050;51.776;22.638;2023-07-24T13:53:43;32.10;1.00
37158;DHT22;23050;51.776;22.638;2023-07-24T13:56:08;32.10;1.00
37158;DHT22;23050;51.776;22.638;2023-07-24T13:58:34;32.40;1.00
37158;DHT22;23050;51.776;22.638;2023-07-24T14:01:00;32.30;1.00
37158;DHT22;23050;51.776;22.638;2023-07-24T14:03:26;31.70;1.00
37158;DHT22;23050;51.776;22.638;2023-07-24T14:05:54;31.40;1.00
37158;DHT22;23050;51.776;22.638;2023-07-24T14:08:19;30.90;1.00
37158;DHT22;23050;51.776;22.638;2023-07-24T14:10:45;30.70;1.00
37158;DHT22;23050;51.776;22.638;2023-07-24T14:13:11;30.50;1.00
37158;DHT22;23050;51.776;22.638;2023-07-24T14:15:36;30.50;1.00
37158;DHT22;23050;51.776;22.638;2023-07-24T14:18:01;30.10;1.00
37158;DHT22;23050;51.776;22.638;2023-07-24T14:20:27;29.90;1.00
37158;DHT22;23050;51.776;22.638;2023-07-24T14:22:52;29.80;1.00
37158;DHT22;23050;51.776;22.638;2023-07-24T14:25:18;29.70;1.00
37158;DHT22;23050;51.776;22.638;2023-07-24T14:27:43;29.70;1.00
37158;DHT22;23050;51.776;22.638;2023-07-24T14:30:09;29.60;1.00
37158;DHT22;23050;51.776;22.638;2023-07-24T14:32:35;29.60;1.00
37158;DHT22;23050;51.776;22.638;2023-07-24T14:35:01;29.40;1.00
37158;DHT22;23050;51.776;22.638;2023-07-24T14:37:26;29.20;1.00
37158;DHT22;23050;51.776;22.638;2023-07-24T14:39:52;29.20;1.00
37158;DHT22;23050;51.776;22.638;2023-07-24T14:42:17;29.10;1.00
37158;DHT22;23050;51.776;22.638;2023-07-24T14:44:43;29.00;1.00
37158;DHT22;23050;51.776;22.638;2023-07-24T14:47:08;28.90;1.00
37158;DHT22;23050;51.776;22.638;2023-07-24T14:49:34;28.90;1.00
37158;DHT22;23050;51.776;22.638;2023-07-24T14:52:00;28.90;1.00
37158;DHT22;23050;51.776;22.638;2023-07-24T14:54:25;28.90;1.00
37158;DHT22;23050;51.776;22.638;2023-07-24T14:56:51;28.90;1.00
37158;DHT22;23050;51.776;22.638;2023-07-24T14:59:16;29.10;1.00
37158;DHT22;23050;51.776;22.638;2023-07-24T15:01:42;29.30;1.00
37158;DHT22;23050;51.776;22.638;2023-07-24T15:04:07;29.50;1.00
37158;DHT22;23050;51.776;22.638;2023-07-24T15:06:33;29.50;1.00
37158;DHT22;23050;51.776;22.638;2023-07-24T15:08:58;29.60;1.00
37158;DHT22;23050;51.776;22.638;2023-07-24T15:11:24;29.70;1.00
37158;DHT22;23050;51.776;22.638;2023-07-24T15:13:50;29.80;1.00
37158;DHT22;23050;51.776;22.638;2023-07-24T15:16:16;29.80;1.00
37158;DHT22;23050;51.776;22.638;2023-07-24T15:18:41;29.80;1.00
37158;DHT22;23050;51.776;22.638;2023-07-24T15:21:07;29.70;1.00
37158;DHT22;23050;51.776;22.638;2023-07-24T15:23:34;29.60;1.00
37158;DHT22;23050;51.776;22.638;2023-07-24T15:25:59;29.70;1.00
37158;DHT22;23050;51.776;22.638;2023-07-24T15:28:25;30.10;1.00
37158;DHT22;23050;51.776;22.638;2023-07-24T15:30:50;30.60;1.00
37158;DHT22;23050;51.776;22.638;2023-07-24T15:33:16;31.10;1.00
37158;DHT22;23050;51.776;22.638;2023-07-24T15:35:42;31.70;1.00
37158;DHT22;23050;51.776;22.638;2023-07-24T15:38:07;31.50;1.00
37158;DHT22;23050;51.776;22.638;2023-07-24T15:40:33;31.30;1.00
37158;DHT22;23050;51.776;22.638;2023-07-24T15:42:58;31.10;1.00